Latest Weather Observations for Wellcamp Airport

IDQ60801

Issued at 11:13 pm EST Friday 7 October 2022 (issued every 10 minutes, with the page automatically refreshed every 10 minutes)

About weather observations | Map of weather stations | Latest weather observations for QLD | Other Formats
Station Details ID: 541150 Name: WELLCAMP AIRPORT Lat: -27.55 Lon: 151.78 Height: 436.98 m
Data from the previous 72 hours. | See also: Recent months for locations in Queensland
Date/Time
EST
Temp
°C
App
Temp
°C
Dew
Point
°C
Rel
Hum
%
Delta-T
°C
Wind Press
QNH
hPa
Press
MSL
hPa
Rain since
9am
mm
Dir  Spd
km/h
Gust
km/h
Spd
kts
Gust
kts
07/11:00pm 16.1 15.8 13.4 84 1.5 ENE 7 13 4 7 1019.2 1017.7 0.2
07/10:30pm 16.1 15.8 13.4 84 1.5 NE 7 11 4 6 1019.1 1017.6 0.2
07/10:00pm 16.7 16.1 13.4 81 1.9 ENE 9 17 5 9 1019.0 1017.5 0.2
07/09:30pm 17.1 15.0 13.6 80 2.0 NE 17 26 9 14 1018.4 1016.9 0.2
07/09:00pm 17.2 15.5 13.5 79 2.1 ENE 15 20 8 11 1018.7 1017.2 0.2
07/08:30pm 17.4 13.6 13.7 79 2.1 ENE 26 33 14 18 1017.9 1016.4 0.2
07/08:00pm 17.9 14.2 13.8 77 2.4 ENE 26 35 14 19 1017.7 1016.2 0.2
07/07:30pm 18.1 15.5 13.8 76 2.5 ENE 20 26 11 14 1017.9 1016.4 0.2
07/07:00pm 18.1 17.2 13.8 76 2.5 ENE 11 17 6 9 1018.1 1016.6 0.2
07/06:30pm 19.1 17.0 13.7 71 3.1 NE 17 22 9 12 1017.9 1016.4 0.2
07/06:00pm 19.3 17.3 13.9 71 3.2 NE 17 22 9 12 1017.6 1016.1 0.2
07/05:30pm 19.8 16.7 13.5 67 3.7 NE 22 30 12 16 1017.2 1015.7 0.2
07/05:00pm 20.5 17.5 13.7 65 4.0 NE 22 30 12 16 1016.7 1015.2 0.2
07/04:30pm 21.0 17.4 13.2 61 4.5 NE 24 33 13 18 1016.7 1015.2 0.2
07/04:00pm 22.2 18.7 13.5 57 5.1 NE 24 35 13 19 1016.4 1014.9 0.2
07/03:30pm 21.9 19.2 13.5 59 4.9 NNE 20 32 11 17 1016.8 1015.3 0.2
07/03:00pm 21.4 17.9 13.3 60 4.7 NE 24 32 13 17 1016.8 1015.3 0.2
07/02:30pm 22.8 19.4 13.6 56 5.4 NE 24 37 13 20 1017.1 1015.6 0.2
07/02:00pm 21.7 18.2 13.3 59 4.9 NE 24 32 13 17 1017.6 1016.1 0.2
07/01:30pm 21.7 17.7 13.1 58 5.0 NNE 26 33 14 18 1017.8 1016.3 0.2
07/01:00pm 21.9 18.8 13.5 59 4.9 NE 22 37 12 20 1018.0 1016.5 0.2
07/12:30pm 21.6 18.0 13.2 58 4.9 NE 24 41 13 22 1018.4 1016.9 0.2
07/12:00pm 21.5 18.3 13.2 59 4.8 NE 22 33 12 18 1018.6 1017.1 0.2
07/11:30am 21.6 17.5 12.7 57 5.2 ENE 26 41 14 22 1018.9 1017.4 0.2
07/11:00am 21.0 17.4 12.9 60 4.7 ENE 24 33 13 18 1019.4 1018.0 0.2
07/10:30am 21.1 17.6 13.5 62 4.5 ENE 24 32 13 17 1019.8 1018.4 0.2
07/10:00am 20.0 16.2 13.5 66 3.8 ENE 26 35 14 19 1020.2 1018.7 0.2
07/09:30am 19.0 16.1 13.0 68 3.5 ENE 20 33 11 18 1020.5 1019.0 0.2
07/09:00am 19.2 15.5 13.8 71 3.1 NE 26 39 14 21 1020.9 1019.4 0.6
07/08:30am 17.6 14.9 13.5 77 2.4 ENE 20 32 11 17 1021.1 1019.6 0.6
07/08:01am 17.4 14.8 13.9 80 2.0 ENE 20 26 11 14 1021.1 1019.6 0.6
07/08:00am 17.1 14.7 13.8 81 1.9 ENE 19 26 10 14 1021.1 1019.6 0.6
07/07:49am 17.3 14.8 13.6 79 2.1 ENE 19 28 10 15 1021.0 1019.5 0.6
07/07:30am 16.9 14.9 14.0 83 1.7 ENE 17 26 9 14 1020.7 1019.2 0.6
07/07:00am 15.8 13.7 13.6 87 1.3 ENE 17 28 9 15 1020.6 1019.1 0.6
07/06:38am 15.4 14.1 13.6 89 1.0 NE 13 22 7 12 1020.3 1018.8 0.6
07/06:30am 15.3 13.9 13.3 88 1.1 NE 13 20 7 11 1020.4 1018.9 0.6
07/06:08am 15.1 13.3 13.3 89 1.0 NE 15 22 8 12 1020.2 1018.7 0.6
07/06:00am 14.9 13.9 13.3 90 0.9 NE 11 17 6 9 1020.1 1018.6 0.6
07/05:30am 14.4 13.6 13.0 91 0.8 NE 9 15 5 8 1019.7 1018.3 0.6
07/05:00am 14.3 13.1 12.9 91 0.8 ENE 11 17 6 9 1019.6 1018.2 0.6
07/04:30am 13.5 12.9 12.4 93 0.6 NE 7 9 4 5 1019.4 1018.0 0.6
07/04:00am 13.6 13.2 12.3 92 0.7 NE 6 11 3 6 1019.3 1017.8 0.6
07/03:39am 14.5 12.9 12.9 90 0.9 ENE 13 17 7 9 1019.2 1017.7 0.6
07/03:30am 14.6 14.2 13.1 91 0.8 NE 7 17 4 9 1019.3 1017.8 0.6
07/03:00am 15.1 14.2 13.6 91 0.9 NNE 11 17 6 9 1019.2 1017.7 0.6
07/02:30am 15.3 13.2 13.7 90 0.9 NE 17 24 9 13 1019.2 1017.7 0.6
07/02:00am 15.0 14.9 14.0 94 0.6 NE 7 13 4 7 1019.6 1018.2 0.6
07/01:30am 15.0 13.4 13.9 93 0.6 ENE 15 22 8 12 1019.8 1018.4 0.6
07/01:00am 15.1 13.9 14.0 93 0.6 NE 13 17 7 9 1020.3 1018.8 0.6
07/12:30am 15.4 13.1 14.1 92 0.8 NE 19 24 10 13 1020.7 1019.2 0.6
07/12:00am 15.1 13.2 14.1 94 0.6 NE 17 28 9 15 1021.0 1019.5 0.6
 
Date/Time
EST
Temp
°C
App
Temp
°C
Dew
Point
°C
Rel
Hum
%
Delta-T
°C
Wind Press
QNH
hPa
Press
MSL
hPa
Rain since
9am
mm
Dir  Spd
km/h
Gust
km/h
Spd
kts
Gust
kts
06/11:30pm 15.3 14.6 14.2 93 0.6 NE 11 17 6 9 1021.3 1019.8 0.6
06/11:00pm 15.3 15.3 14.2 93 0.6 ENE 7 17 4 9 1021.5 1020.1 0.6
06/10:30pm 15.2 14.8 14.2 94 0.6 NE 9 17 5 9 1021.6 1020.2 0.6
06/10:00pm 15.4 14.7 14.4 94 0.6 ENE 11 22 6 12 1021.7 1020.3 0.6
06/09:30pm 15.5 13.6 14.2 92 0.8 ENE 17 32 9 17 1021.7 1020.3 0.6
06/09:00pm 15.6 13.2 14.3 92 0.8 ENE 20 30 11 16 1021.6 1020.2 0.6
06/08:39pm 15.5 12.3 14.2 92 0.8 ENE 24 32 13 17 1021.3 1019.8 0.6
06/08:30pm 15.7 12.1 14.2 91 0.9 ENE 26 35 14 19 1021.3 1019.8 0.6
06/08:00pm 16.0 12.1 14.4 90 0.9 E 28 37 15 20 1021.2 1019.7 0.6
06/07:30pm 16.1 12.6 14.5 90 0.9 E 26 35 14 19 1020.9 1019.4 0.6
06/07:00pm 16.1 13.4 14.5 90 0.9 E 22 28 12 15 1020.9 1019.4 0.6
06/06:30pm 16.0 14.2 14.4 90 0.9 ENE 17 24 9 13 1020.6 1019.1 0.6
06/06:00pm 16.2 14.5 14.6 90 0.9 ENE 17 24 9 13 1020.3 1018.8 0.6
06/05:30pm 16.4 14.7 14.8 90 0.9 ENE 17 22 9 12 1020.1 1018.6 0.6
06/05:00pm 16.4 14.3 14.8 90 0.9 ENE 19 26 10 14 1020.1 1018.6 0.6
06/04:30pm 16.7 14.3 13.8 83 1.7 ENE 19 24 10 13 1020.0 1018.5 0.6
06/04:00pm 17.0 14.1 14.1 83 1.7 ENE 22 28 12 15 1019.6 1018.2 0.6
06/03:30pm 17.0 14.9 14.6 86 1.4 ENE 19 26 10 14 1019.5 1018.1 0.6
06/03:00pm 17.3 14.8 14.2 82 1.8 ENE 20 26 11 14 1019.5 1018.1 0.6
06/02:30pm 17.6 15.5 14.7 83 1.7 E 19 24 10 13 1019.7 1018.3 0.6
06/02:00pm 17.4 15.6 15.4 88 1.2 E 19 24 10 13 1020.2 1018.7 0.6
06/01:30pm 17.2 15.8 15.5 90 1.0 ENE 17 22 9 12 1020.5 1019.0 0.6
06/01:10pm 16.8 15.9 14.8 88 1.2 E 13 19 7 10 1020.8 1019.3 0.6
06/01:00pm 16.7 - 15.4 92 0.8 - - - - - 1020.9 1019.4 0.6
06/12:30pm 16.9 15.2 14.7 87 1.3 E 17 20 9 11 1021.1 1019.6 0.4
06/12:26pm 17.0 15.2 14.5 85 1.5 E 17 20 9 11 1021.2 1019.7 0.2
06/12:00pm 17.0 15.3 14.6 86 1.4 ENE 17 22 9 12 1021.6 1020.2 0.0
06/11:30am 17.2 15.2 13.9 81 1.9 E 17 24 9 13 1021.8 1020.4 0.0
06/11:00am 17.3 15.7 14.0 81 1.9 ENE 15 20 8 11 1022.1 1020.7 0.0
06/10:30am 16.9 14.5 13.8 82 1.8 ENE 19 26 10 14 1022.6 1021.1 0.0
06/10:10am 16.7 14.4 14.0 84 1.6 ENE 19 26 10 14 1022.7 1021.2 0.0
06/10:00am 16.5 14.0 14.0 85 1.4 ENE 20 26 11 14 1022.6 1021.1 0.0
06/09:30am 15.8 13.8 14.0 89 1.0 ENE 17 24 9 13 1022.9 1021.4 0.0
06/09:00am 15.5 13.4 13.7 89 1.0 ENE 17 24 9 13 1022.8 1021.3 0.0
06/08:30am 15.5 12.3 13.2 86 1.3 ENE 22 28 12 15 1022.7 1021.2 0.0
06/08:00am 14.9 12.1 13.3 90 0.9 ENE 20 26 11 14 1022.5 1021.0 0.0
06/07:30am 15.0 12.6 13.7 92 0.7 ENE 19 28 10 15 1022.2 1020.8 0.0
06/07:00am 14.3 12.0 13.0 92 0.7 ENE 17 22 9 12 1022.5 1021.0 0.0
06/06:30am 14.1 12.6 13.1 94 0.6 ENE 13 19 7 10 1022.2 1020.8 0.0
06/06:00am 13.9 12.8 13.0 94 0.5 ESE 11 15 6 8 1021.9 1020.5 0.0
06/05:30am 14.0 12.4 12.7 92 0.7 E 13 19 7 10 1021.6 1020.2 0.0
06/05:00am 13.8 12.9 12.7 93 0.6 E 9 13 5 7 1021.7 1020.3 0.0
06/04:30am 13.7 11.3 12.6 93 0.6 ENE 17 20 9 11 1021.1 1019.6 0.0
06/04:16am 13.7 12.1 12.8 94 0.5 ENE 13 20 7 11 1021.1 1019.6 0.0
06/04:04am 13.7 11.7 12.8 94 0.5 ENE 15 19 8 10 1021.0 1019.5 0.0
06/04:00am 13.7 11.7 12.8 94 0.5 ENE 15 19 8 10 1021.0 1019.5 0.0
06/03:30am 14.0 13.7 12.7 92 0.7 NE 6 7 3 4 1021.4 1019.9 0.0
06/03:00am 13.8 13.4 12.5 92 0.7 E 6 9 3 5 1021.2 1019.7 0.0
06/02:53am 13.8 13.4 12.5 92 0.7 ENE 6 9 3 5 1021.2 1019.7 0.0
06/02:30am 13.9 12.6 12.5 91 0.8 ENE 11 15 6 8 1021.2 1019.7 0.0
06/02:00am 14.0 11.6 12.6 91 0.8 E 17 24 9 13 1021.2 1019.7 0.0
06/01:30am 13.9 11.8 12.5 91 0.8 ENE 15 20 8 11 1021.7 1020.3 0.0
06/01:19am 14.0 12.7 12.6 91 0.8 ENE 11 20 6 11 1021.8 1020.4 0.0
06/01:00am 14.1 12.8 12.5 90 0.9 NE 11 17 6 9 1022.0 1020.6 0.0
06/12:30am 14.0 11.3 12.9 93 0.6 NE 19 22 10 12 1022.2 1020.8 0.0
06/12:15am 14.2 12.2 12.8 91 0.8 NNE 15 20 8 11 1022.2 1020.8 0.0
06/12:00am 14.5 12.8 12.5 88 1.1 NE 13 20 7 11 1021.9 1020.5 0.0
 
Date/Time
EST
Temp
°C
App
Temp
°C
Dew
Point
°C
Rel
Hum
%
Delta-T
°C
Wind Press
QNH
hPa
Press
MSL
hPa
Rain since
9am
mm
Dir  Spd
km/h
Gust
km/h
Spd
kts
Gust
kts
05/11:30pm 14.6 11.6 12.6 88 1.1 ENE 20 35 11 19 1021.8 1020.4 0.0
05/11:00pm 14.7 11.7 12.4 86 1.3 ENE 20 30 11 16 1022.0 1020.6 0.0
05/10:30pm 14.7 11.9 12.6 87 1.2 E 19 28 10 15 1022.5 1021.0 0.0
05/10:00pm 14.9 12.9 12.6 86 1.3 ENE 15 22 8 12 1022.9 1021.4 0.0
05/09:30pm 15.1 12.9 12.1 82 1.7 ENE 15 22 8 12 1023.0 1021.5 0.0
05/09:00pm 15.4 13.4 11.4 77 2.2 ENE 13 19 7 10 1022.9 1021.4 0.0
05/08:30pm 15.5 13.8 11.3 76 2.3 NE 11 15 6 8 1022.7 1021.2 0.0
05/08:00pm 15.8 12.5 11.0 73 2.6 ENE 19 24 10 13 1022.2 1020.8 0.0
05/07:30pm 16.0 12.5 10.3 69 3.1 ENE 19 24 10 13 1022.1 1020.7 0.0
05/07:00pm 16.3 12.5 9.9 66 3.4 ENE 20 26 11 14 1021.5 1020.1 0.0
05/06:30pm 16.2 13.3 9.8 66 3.4 ENE 15 20 8 11 1021.3 1019.8 0.0
05/06:00pm 16.9 12.7 9.8 63 3.8 ENE 22 30 12 16 1020.8 1019.3 0.0
05/05:30pm 17.3 14.1 11.1 67 3.4 ENE 19 24 10 13 1021.1 1019.6 0.0
05/05:00pm 17.9 14.6 11.5 66 3.6 ENE 20 26 11 14 1021.3 1019.8 0.0
05/04:30pm 18.4 15.1 11.5 64 3.9 ENE 20 24 11 13 1020.7 1019.2 0.0
05/04:00pm 18.9 15.1 11.0 60 4.4 ENE 22 32 12 17 1020.5 1019.0 0.0
05/03:30pm 19.2 15.4 11.3 60 4.4 ENE 22 30 12 16 1020.5 1019.0 0.0
05/03:00pm 19.2 14.1 10.5 57 4.8 ENE 28 33 15 18 1020.4 1018.9 0.0
05/02:30pm 19.5 15.3 11.0 58 4.7 ENE 24 30 13 16 1020.7 1019.2 0.0
05/02:00pm 19.7 14.5 10.4 55 5.1 E 28 35 15 19 1020.9 1019.4 0.0
05/01:30pm 19.3 14.5 11.6 61 4.3 ENE 28 39 15 21 1021.3 1019.8 0.0
05/01:00pm 19.7 15.6 11.5 59 4.6 ENE 24 33 13 18 1021.6 1020.2 0.0
05/12:30pm 18.8 14.7 11.4 62 4.1 ENE 24 32 13 17 1022.6 1021.1 0.0
05/12:00pm 18.3 13.2 10.7 61 4.2 ENE 28 37 15 20 1022.8 1021.3 0.0
05/11:30am 18.7 15.1 11.8 64 3.9 ENE 22 30 12 16 1023.3 1021.8 0.0
05/11:00am 18.5 14.2 10.6 60 4.3 NE 24 32 13 17 1023.3 1021.8 0.0
05/10:30am 17.8 13.9 10.7 63 3.9 NE 22 30 12 16 1023.7 1022.3 0.0
05/10:00am 17.9 13.6 10.8 63 3.9 ENE 24 32 13 17 1023.5 1022.1 0.0
05/09:30am 17.2 13.2 10.6 65 3.6 ENE 22 33 12 18 1023.4 1021.9 0.0
05/09:00am 16.9 12.3 11.2 69 3.1 ENE 26 32 14 17 1023.5 1022.1 0.0
05/08:30am 16.9 12.7 11.0 68 3.2 ENE 24 33 13 18 1023.5 1022.1 0.0
05/08:00am 16.2 12.8 11.4 73 2.6 ENE 20 28 11 15 1023.5 1022.1 0.0
05/07:30am 15.1 13.2 11.7 80 1.9 ESE 13 19 7 10 1023.4 1021.9 0.0
05/07:00am 13.4 12.1 11.3 87 1.1 SSE 9 15 5 8 1023.5 1022.1 0.0
05/06:30am 12.5 11.2 11.1 91 0.8 ESE 9 11 5 6 1023.4 1021.9 0.0
05/06:00am 10.1 8.3 9.3 95 0.4 ESE 9 13 5 7 1023.0 1021.5 0.0
05/05:30am 10.2 8.9 9.3 94 0.5 SE 6 7 3 4 1022.6 1021.1 0.0
05/05:00am 10.0 8.6 8.9 93 0.6 ESE 6 9 3 5 1022.0 1020.6 0.0
05/04:30am 10.3 8.9 9.4 94 0.5 S 7 9 4 5 1021.5 1020.1 0.0
05/04:00am 10.7 9.3 9.5 92 0.6 SSE 7 9 4 5 1021.3 1019.8 0.0
05/03:30am 11.2 9.4 9.6 90 0.8 SSE 9 11 5 6 1021.3 1019.8 0.0
05/03:00am 11.3 9.9 9.6 89 0.9 SSE 7 11 4 6 1021.3 1019.8 0.0
05/02:30am 11.4 10.3 10.0 91 0.7 SE 6 7 3 4 1021.2 1019.7 0.0
05/02:00am 10.1 9.1 8.7 91 0.7 S 4 7 2 4 1021.5 1020.1 0.0
05/01:30am 10.2 9.3 9.3 94 0.5 S 4 7 2 4 1021.6 1020.2 0.0
05/01:00am 11.7 11.4 10.1 90 0.8 N 2 6 1 3 1021.8 1020.4 0.0
05/12:30am 11.5 11.1 9.9 90 0.8 WNW 2 6 1 3 1021.9 1020.5 0.0
05/12:00am 12.2 10.9 10.1 87 1.1 NE 7 7 4 4 1022.0 1020.6 0.0
 
Date/Time
EST
Temp
°C
App
Temp
°C
Dew
Point
°C
Rel
Hum
%
Delta-T
°C
Wind Press
QNH
hPa
Press
MSL
hPa
Rain since
9am
mm
Dir  Spd
km/h
Gust
km/h
Spd
kts
Gust
kts
04/11:30pm 12.3 11.7 10.5 89 1.0 ESE 4 7 2 4 1022.1 1020.7 0.0

Other formats

Comma delimited format used in spreadsheet applications
http://www.bom.gov.au/fwo/IDQ60801/IDQ60801.99435.axf

JavaScript Object Notation format (JSON) in row-major order
http://www.bom.gov.au/fwo/IDQ60801/IDQ60801.99435.json

Data quality

Most of these data are generated automatically and are frequently updated. Quality checks on data are not normally performed. It is possible for incorrect values to appear. Refer to information at About Latest Weather Observations and please check the disclaimer before using these data.